Wrentham, Canada
Current Conditions -  °F | °C
As of 5:00 PM on Sunday 25 Jan 2015 (Local Time) from CYQL Reporting Station
Broken Clouds Broken Clouds  
Wind Chill: 57°   Ceiling: 27000
Heat Index: 57°   Visibility: 40mi
Dew Point: 28°   Wind: 25mph
Humidity: 33%   Direction: 250°WSW
Pressure: 29.89"   Gusts: 32mph
Location:  49.52°N, 112.18°W
Report Text: CYQL 260000Z 25022G28KT 40SM FEW050 SCT170 BKN270 14/M02 A2989 RMK SC1AC3CI3 SLP129 DENSITY ALT 3600FT
Loading
Personal Weather Stations






























Interactive Weather Map New forecast layout! Learn more

10-Day Weather Forecast

Advertisements
Track Severe Weather on mobile